Oxdrift, Canada
Current Conditions -  °F | °C
As of 6:00 PM on Saturday 25 Oct 2014 (Local Time) from CYHD Reporting Station
Clear Clear  
Wind Chill: 40°   Ceiling: Unl
Heat Index: 46°   Visibility: 9mi
Dew Point: 27°   Wind: 14mph
Humidity: 46%   Direction: 300°WNW
Pressure: 29.88"   Gusts: 23mph
Location:  49.82°N, 92.98°W
Report Text: CYHD 252300Z AUTO 30012G20KT 9SM CLR 08/M03 A2988 RMK SLP132
Loading
Personal Weather Stations






























Interactive Weather Map New forecast layout! Learn more

10-Day Weather Forecast

Advertisements
Track Severe Weather on mobile